Time;durP1;ratioP1;P1;durP2;ratioP2;P2;SDS_P1;SDS_P2;PMS_P1;PMS_P2;Temp;Humidity;BMP_temperature;BMP_pressure;BME280_temperature;BME280_humidity;BME280_pressure;Samples;Min_cycle;Max_cycle;Signal;HPM_P1;HPM_P2
2021/01/16 00:00:40;;;;;;;8.97;5.50;;;0.20;1.00;;;;;;5074622;28;20203;-63
2021/01/16 00:03:10;;;;;;;6.57;4.83;;;0.20;1.00;;;;;;5074428;28;20492;-64
2021/01/16 00:05:36;;;;;;;4.90;3.85;;;0.30;1.00;;;;;;5074589;28;20179;-64
2021/01/16 00:08:03;;;;;;;5.13;3.97;;;0.30;1.00;;;;;;5074333;28;20204;-63
2021/01/16 00:10:34;;;;;;;7.35;4.38;;;0.30;1.00;;;;;;5074198;28;20476;-62
2021/01/16 00:13:00;;;;;;;5.95;3.95;;;0.40;1.00;;;;;;5074553;28;20187;-66
2021/01/16 00:15:26;;;;;;;6.70;4.80;;;0.60;1.00;;;;;;5074626;28;20177;-64
2021/01/16 00:18:02;;;;;;;5.00;4.10;;;0.50;1.00;;;;;;5074237;28;20245;-67
2021/01/16 00:20:29;;;;;;;8.32;5.40;;;0.70;1.00;;;;;;5074418;28;20566;-67
2021/01/16 00:22:55;;;;;;;5.47;4.43;;;0.70;1.00;;;;;;5073328;28;20184;-63
2021/01/16 00:25:20;;;;;;;6.80;3.73;;;0.90;1.00;;;;;;5074080;28;20177;-66
2021/01/16 00:27:46;;;;;;;5.33;4.60;;;1.00;99.90;;;;;;5073854;28;20208;-67
2021/01/16 00:30:12;;;;;;;5.93;4.40;;;1.00;99.90;;;;;;5074027;28;20434;-63
2021/01/16 00:32:39;;;;;;;5.68;4.50;;;0.50;99.90;;;;;;5073724;28;20176;-64
2021/01/16 00:35:11;;;;;;;7.70;4.60;;;0.40;99.90;;;;;;5073653;28;20610;-66
2021/01/16 00:37:37;;;;;;;5.88;4.05;;;0.40;99.90;;;;;;5073289;28;20177;-66
2021/01/16 00:40:12;;;;;;;12.40;4.18;;;0.40;99.90;;;;;;5074243;28;20191;-65
2021/01/16 00:42:43;;;;;;;10.27;5.00;;;0.30;99.90;;;;;;5073846;28;20180;-62
2021/01/16 00:45:09;;;;;;;5.40;4.25;;;0.30;99.90;;;;;;5073912;28;20184;-67
2021/01/16 00:47:36;;;;;;;6.55;2.88;;;0.30;99.90;;;;;;5074404;28;20227;-66
2021/01/16 00:50:05;;;;;;;5.72;3.08;;;0.30;99.90;;;;;;5074634;28;20172;-62
2021/01/16 00:52:30;;;;;;;6.22;3.60;;;0.40;99.90;;;;;;5074030;28;20203;-62
2021/01/16 00:54:56;;;;;;;5.30;3.53;;;0.40;99.90;;;;;;5072578;28;20215;-62
2021/01/16 00:57:22;;;;;;;5.70;3.80;;;0.40;99.90;;;;;;5073980;28;20203;-66
2021/01/16 00:59:47;;;;;;;4.63;3.90;;;0.60;99.90;;;;;;5073699;28;20184;-64
2021/01/16 01:02:13;;;;;;;6.30;4.87;;;0.60;99.90;;;;;;5072761;28;20180;-66
2021/01/16 01:04:38;;;;;;;5.47;3.27;;;0.60;99.90;;;;;;5073558;28;20564;-64
2021/01/16 01:07:11;;;;;;;5.13;3.80;;;0.70;99.90;;;;;;5072550;28;20211;-66
2021/01/16 01:09:38;;;;;;;5.82;3.92;;;0.70;99.90;;;;;;5073630;28;20173;-66
2021/01/16 01:12:05;;;;;;;4.93;2.92;;;0.60;99.90;;;;;;5072529;28;20185;-66
2021/01/16 01:14:31;;;;;;;8.88;3.00;;;0.60;99.90;;;;;;5073280;28;20177;-66
2021/01/16 01:16:56;;;;;;;8.00;4.30;;;0.60;99.90;;;;;;5073544;28;20191;-66
2021/01/16 01:19:22;;;;;;;5.17;3.97;;;0.60;99.90;;;;;;5073515;28;20187;-66
2021/01/16 01:21:48;;;;;;;4.47;3.57;;;0.60;99.90;;;;;;5073656;28;20176;-66
2021/01/16 01:24:13;;;;;;;5.80;3.77;;;0.40;99.90;;;;;;5073310;28;20184;-66
2021/01/16 01:26:39;;;;;;;5.87;4.17;;;0.30;99.90;;;;;;5073217;28;20200;-67
2021/01/16 01:29:05;;;;;;;6.57;5.20;;;0.30;1.00;;;;;;5073342;28;20242;-66
2021/01/16 01:31:31;;;;;;;6.75;4.03;;;0.30;1.00;;;;;;5073365;28;20652;-66
2021/01/16 01:33:57;;;;;;;8.47;4.90;;;0.40;1.00;;;;;;5073070;28;20180;-67
2021/01/16 01:36:22;;;;;;;8.20;4.10;;;0.40;1.00;;;;;;5072275;28;20431;-66
2021/01/16 01:38:48;;;;;;;4.50;3.73;;;0.30;1.00;;;;;;5073377;28;20463;-67
2021/01/16 01:41:13;;;;;;;6.60;3.80;;;0.20;1.00;;;;;;5073314;28;20617;-67
2021/01/16 01:43:39;;;;;;;6.73;4.00;;;0.00;1.00;;;;;;5073030;28;20192;-63
2021/01/16 01:46:05;;;;;;;5.57;4.53;;;0.00;1.00;;;;;;5073204;28;20242;-63
2021/01/16 01:48:32;;;;;;;5.97;4.00;;;0.00;1.00;;;;;;5074343;28;20181;-63
2021/01/16 01:51:00;;;;;;;11.93;4.90;;;0.00;1.00;;;;;;5076037;28;20616;-67
2021/01/16 01:53:28;;;;;;;6.57;4.78;;;0.10;1.00;;;;;;5076797;28;20521;-64
2021/01/16 01:55:56;;;;;;;5.55;4.45;;;0.10;1.00;;;;;;5076773;28;20176;-64
2021/01/16 01:58:23;;;;;;;8.35;4.65;;;0.00;1.00;;;;;;5077171;28;20176;-63
2021/01/16 02:00:52;;;;;;;5.05;3.88;;;0.00;1.00;;;;;;5076637;28;20195;-63
2021/01/16 02:03:21;;;;;;;8.60;5.38;;;0.10;1.00;;;;;;5076618;28;20176;-63
2021/01/16 02:05:47;;;;;;;7.55;4.97;;;0.10;1.00;;;;;;5075663;28;20240;-63
2021/01/16 02:08:12;;;;;;;7.13;4.43;;;0.00;1.00;;;;;;5077200;28;20208;-66
2021/01/16 02:10:38;;;;;;;6.77;4.60;;;0.00;1.00;;;;;;5093539;28;20181;-63
2021/01/16 02:13:04;;;;;;;6.23;4.67;;;0.10;1.00;;;;;;5077075;28;20211;-66
2021/01/16 02:16:01;;;;;;;4.77;3.33;;;0.10;1.00;;;;;;5075962;28;20275;-65
2021/01/16 02:18:34;;;;;;;7.43;4.70;;;0.00;1.00;;;;;;5058321;28;20220;-64
2021/01/16 02:21:04;;;;;;;6.65;4.75;;;0.00;1.00;;;;;;5077333;28;20177;-66
2021/01/16 02:23:29;;;;;;;6.10;4.03;;;0.10;1.00;;;;;;5076962;28;20644;-66
2021/01/16 02:26:17;;;;;;;6.83;3.90;;;0.20;1.00;;;;;;5076263;28;20180;-64
2021/01/16 02:28:56;;;;;;;6.65;4.25;;;0.10;1.00;;;;;;5077356;28;20517;-64
2021/01/16 02:31:30;;;;;;;5.57;3.90;;;0.00;1.00;;;;;;5077711;28;20211;-63
2021/01/16 02:33:58;;;;;;;6.35;4.07;;;-0.10;1.00;;;;;;5077528;28;20264;-66
2021/01/16 02:37:05;;;;;;;6.10;4.45;;;0.00;1.00;;;;;;5077778;28;20173;-64
2021/01/16 02:39:52;;;;;;;5.65;3.78;;;0.00;1.00;;;;;;5078243;28;20204;-66
2021/01/16 02:42:36;;;;;;;5.10;3.63;;;0.20;1.00;;;;;;5077936;28;20240;-65
2021/01/16 02:45:07;;;;;;;6.20;4.60;;;0.20;1.00;;;;;;5077620;28;20181;-64
2021/01/16 02:48:02;;;;;;;8.38;4.68;;;0.10;1.00;;;;;;5077512;28;20531;-64
2021/01/16 02:50:29;;;;;;;5.03;3.80;;;0.40;1.00;;;;;;5077209;28;20270;-66
2021/01/16 02:52:57;;;;;;;7.82;4.18;;;0.40;99.90;;;;;;5077037;28;20618;-66
2021/01/16 02:55:23;;;;;;;5.72;4.60;;;0.20;1.00;;;;;;5076409;28;20187;-67
2021/01/16 02:57:49;;;;;;;7.13;4.47;;;0.10;1.00;;;;;;5076685;28;20177;-64
2021/01/16 03:00:18;;;;;;;5.33;4.10;;;0.10;1.00;;;;;;5091757;28;20451;-63
2021/01/16 03:02:44;;;;;;;6.30;3.95;;;0.20;1.00;;;;;;5076040;28;20196;-64
2021/01/16 03:05:10;;;;;;;6.07;4.53;;;0.20;1.00;;;;;;5076717;28;20471;-66
2021/01/16 03:07:36;;;;;;;9.73;4.60;;;0.10;1.00;;;;;;5075784;28;20205;-66
2021/01/16 03:10:05;;;;;;;6.80;4.80;;;0.30;1.00;;;;;;5076559;28;20173;-63
2021/01/16 03:12:32;;;;;;;9.15;5.07;;;0.20;1.00;;;;;;5076574;28;20201;-64
2021/01/16 03:15:10;;;;;;;9.73;5.60;;;0.20;1.00;;;;;;5075460;28;20212;-66
2021/01/16 03:17:47;;;;;;;6.50;3.95;;;0.20;1.00;;;;;;5076098;28;20180;-63
2021/01/16 03:20:23;;;;;;;5.50;4.60;;;0.10;1.00;;;;;;5076945;28;20625;-64
2021/01/16 03:22:50;;;;;;;6.53;4.80;;;0.10;1.00;;;;;;5075613;28;20271;-63
2021/01/16 03:25:17;;;;;;;7.90;5.03;;;0.10;1.00;;;;;;5075631;28;20272;-64
2021/01/16 03:27:43;;;;;;;5.82;3.80;;;0.10;1.00;;;;;;5075240;28;20209;-65
2021/01/16 03:30:10;;;;;;;8.90;5.57;;;0.00;1.00;;;;;;5076535;28;20192;-64
2021/01/16 03:32:36;;;;;;;6.60;4.60;;;0.00;1.00;;;;;;5075458;28;20515;-64
2021/01/16 03:35:02;;;;;;;5.78;4.30;;;0.00;1.00;;;;;;5091816;28;20239;-66
2021/01/16 03:37:28;;;;;;;6.78;4.50;;;0.20;1.00;;;;;;5076041;28;20222;-64
2021/01/16 03:39:54;;;;;;;7.00;4.47;;;0.20;1.00;;;;;;5076152;28;20235;-66
2021/01/16 03:42:19;;;;;;;6.67;4.30;;;0.10;1.00;;;;;;5075166;28;20188;-66
2021/01/16 03:44:46;;;;;;;10.50;5.47;;;0.00;1.00;;;;;;5074811;28;20176;-65
2021/01/16 03:47:11;;;;;;;7.15;5.72;;;0.00;1.00;;;;;;5074977;28;20299;-67
2021/01/16 03:49:37;;;;;;;6.50;5.17;;;0.00;1.00;;;;;;5074666;28;20218;-67
2021/01/16 03:52:04;;;;;;;8.87;5.33;;;0.10;1.00;;;;;;5075860;28;20753;-66
2021/01/16 03:54:30;;;;;;;6.15;4.47;;;0.20;1.00;;;;;;5075544;28;20216;-63
2021/01/16 03:56:56;;;;;;;6.13;4.10;;;0.10;1.00;;;;;;5075677;28;20568;-66
2021/01/16 03:59:22;;;;;;;6.63;4.47;;;0.00;1.00;;;;;;5074642;28;20181;-66
2021/01/16 04:01:48;;;;;;;8.77;4.00;;;0.20;1.00;;;;;;5075107;28;20188;-63
2021/01/16 04:04:14;;;;;;;5.70;4.45;;;0.30;1.00;;;;;;5075125;28;20272;-66
2021/01/16 04:06:40;;;;;;;8.53;5.23;;;0.10;1.00;;;;;;5091096;28;20307;-66
2021/01/16 04:09:05;;;;;;;6.13;4.57;;;0.10;1.00;;;;;;5075210;28;20585;-64
2021/01/16 04:11:32;;;;;;;5.97;4.17;;;0.20;1.00;;;;;;5073867;28;20173;-66
2021/01/16 04:13:57;;;;;;;6.22;4.55;;;0.30;1.00;;;;;;5073470;28;20271;-66
2021/01/16 04:16:26;;;;;;;13.20;4.47;;;0.20;1.00;;;;;;5075132;28;20204;-66
2021/01/16 04:18:52;;;;;;;7.93;4.15;;;0.30;1.00;;;;;;5073974;28;20184;-63
2021/01/16 04:21:19;;;;;;;6.55;4.45;;;0.20;1.00;;;;;;5075313;28;20173;-67
2021/01/16 04:23:44;;;;;;;7.93;4.82;;;0.10;1.00;;;;;;5074670;28;20183;-66
2021/01/16 04:26:10;;;;;;;6.07;4.67;;;0.00;1.00;;;;;;5074866;28;20185;-62
2021/01/16 04:28:36;;;;;;;8.23;4.93;;;0.00;1.00;;;;;;5074497;28;20180;-63
2021/01/16 04:31:02;;;;;;;6.37;4.60;;;-0.10;1.00;;;;;;5075336;28;20522;-66
2021/01/16 04:33:28;;;;;;;7.23;5.30;;;0.10;1.00;;;;;;5074791;28;20763;-63
2021/01/16 04:35:53;;;;;;;7.37;5.10;;;0.20;1.00;;;;;;5075288;28;20426;-65
2021/01/16 04:38:19;;;;;;;5.50;4.07;;;0.20;1.00;;;;;;5074986;28;20181;-63
2021/01/16 04:40:44;;;;;;;7.50;4.40;;;0.20;1.00;;;;;;5073783;28;20181;-67
2021/01/16 04:43:13;;;;;;;6.37;5.33;;;0.10;1.00;;;;;;5074675;28;20188;-63
2021/01/16 04:45:40;;;;;;;5.80;4.20;;;-0.10;1.00;;;;;;5074769;28;20606;-67
2021/01/16 04:48:09;;;;;;;5.22;4.22;;;-0.20;1.00;;;;;;5074830;28;20208;-67
2021/01/16 04:50:38;;;;;;;7.57;5.40;;;-0.20;1.00;;;;;;5074744;28;20169;-63
2021/01/16 04:53:06;;;;;;;6.10;4.55;;;0.00;1.00;;;;;;5073734;28;20187;-63
2021/01/16 04:55:34;;;;;;;10.93;5.43;;;0.10;1.00;;;;;;5074117;28;20176;-64
2021/01/16 04:58:08;;;;;;;7.85;4.55;;;0.20;1.00;;;;;;5074545;28;20217;-64
2021/01/16 05:00:39;;;;;;;5.60;4.93;;;0.20;1.00;;;;;;5073457;28;20196;-63
2021/01/16 05:03:07;;;;;;;6.35;4.50;;;0.20;1.00;;;;;;5073584;28;20185;-64
2021/01/16 05:05:36;;;;;;;8.00;5.03;;;0.20;1.00;;;;;;5074477;28;20204;-67
2021/01/16 05:08:02;;;;;;;7.95;4.55;;;0.30;1.00;;;;;;5074659;28;20679;-64
2021/01/16 05:10:41;;;;;;;6.60;4.38;;;0.20;1.00;;;;;;5073619;28;20185;-66
2021/01/16 05:13:16;;;;;;;5.65;4.20;;;0.20;1.00;;;;;;5074271;28;20264;-64
2021/01/16 05:15:45;;;;;;;5.68;4.63;;;0.20;1.00;;;;;;5073669;28;20617;-66
2021/01/16 05:18:17;;;;;;;9.45;5.43;;;0.20;1.00;;;;;;5073638;28;20180;-67
2021/01/16 05:20:45;;;;;;;5.40;4.55;;;0.20;1.00;;;;;;5073950;28;20632;-66
2021/01/16 05:23:12;;;;;;;4.88;3.95;;;0.20;1.00;;;;;;5077118;28;20180;-65
2021/01/16 05:25:43;;;;;;;8.07;4.38;;;0.20;1.00;;;;;;5081538;28;20172;-64
2021/01/16 05:28:11;;;;;;;7.00;4.45;;;0.20;1.00;;;;;;5080271;28;20208;-64
2021/01/16 05:30:58;;;;;;;8.57;4.43;;;0.10;1.00;;;;;;5080270;28;20177;-66
2021/01/16 05:33:30;;;;;;;8.10;4.18;;;0.10;1.00;;;;;;5080062;28;20490;-67
2021/01/16 05:35:57;;;;;;;4.28;3.25;;;0.20;1.00;;;;;;5080454;28;20273;-67
2021/01/16 05:38:26;;;;;;;6.45;4.78;;;0.20;1.00;;;;;;5080560;28;20612;-67
2021/01/16 05:40:54;;;;;;;6.20;4.75;;;0.20;1.00;;;;;;5080412;28;20180;-67
2021/01/16 05:43:20;;;;;;;5.80;4.30;;;0.30;1.00;;;;;;5080563;28;20177;-64
2021/01/16 05:45:49;;;;;;;7.53;4.87;;;0.40;1.00;;;;;;5080462;28;20172;-68
2021/01/16 05:48:16;;;;;;;7.40;3.88;;;0.40;1.00;;;;;;5096203;28;20807;-64
2021/01/16 05:50:42;;;;;;;7.10;3.75;;;0.40;1.00;;;;;;5079249;28;20181;-67
2021/01/16 05:53:09;;;;;;;5.97;4.00;;;0.20;1.00;;;;;;5079092;28;20176;-67
2021/01/16 05:55:36;;;;;;;9.77;3.97;;;0.20;1.00;;;;;;5079550;28;20196;-64
2021/01/16 05:58:07;;;;;;;6.97;4.85;;;0.40;1.00;;;;;;5079544;28;20181;-67
2021/01/16 06:00:38;;;;;;;6.80;4.82;;;0.40;1.00;;;;;;5080290;28;20204;-67
2021/01/16 06:03:10;;;;;;;6.07;4.00;;;0.50;1.00;;;;;;5080229;28;20180;-63
2021/01/16 06:05:36;;;;;;;5.78;3.80;;;0.40;1.00;;;;;;5080266;28;20580;-67
2021/01/16 06:08:03;;;;;;;5.63;4.30;;;0.40;1.00;;;;;;5080294;28;20294;-64
2021/01/16 06:10:34;;;;;;;5.60;3.60;;;0.50;1.00;;;;;;5079644;28;20515;-64
2021/01/16 06:13:18;;;;;;;5.70;3.97;;;0.50;1.00;;;;;;5080040;28;20209;-66
2021/01/16 06:15:47;;;;;;;5.70;3.80;;;0.80;1.00;;;;;;5080428;28;20212;-67
2021/01/16 06:18:29;;;;;;;7.20;4.43;;;0.90;1.00;;;;;;5080321;28;20193;-67
2021/01/16 06:20:55;;;;;;;9.05;4.70;;;0.80;1.00;;;;;;5080209;28;20188;-68
2021/01/16 06:23:24;;;;;;;5.55;4.05;;;0.90;1.00;;;;;;5079987;28;20200;-67
2021/01/16 06:25:52;;;;;;;6.32;3.80;;;0.70;1.00;;;;;;5079496;28;20212;-63
2021/01/16 06:28:19;;;;;;;4.43;3.25;;;0.50;1.00;;;;;;5080227;28;20200;-64
2021/01/16 06:30:47;;;;;;;4.90;3.90;;;0.50;1.00;;;;;;5080998;28;20238;-63
2021/01/16 06:33:23;;;;;;;5.47;3.70;;;0.80;1.00;;;;;;5079018;28;20222;-63
2021/01/16 06:36:03;;;;;;;10.30;4.03;;;0.70;99.90;;;;;;5076479;28;20172;-64
2021/01/16 06:38:34;;;;;;;7.20;4.10;;;0.90;1.00;;;;;;5076909;28;20165;-67
2021/01/16 06:41:16;;;;;;;4.25;3.35;;;1.10;99.90;;;;;;5076884;28;20188;-64
2021/01/16 06:43:45;;;;;;;4.68;3.70;;;1.00;99.90;;;;;;5076900;28;20199;-63
2021/01/16 06:46:15;;;;;;;5.30;3.70;;;0.80;99.90;;;;;;5077031;28;20251;-63
2021/01/16 06:48:46;;;;;;;6.13;3.20;;;0.60;99.90;;;;;;5076022;28;20192;-66
2021/01/16 06:51:23;;;;;;;9.52;4.30;;;0.50;1.00;;;;;;5076727;28;20216;-66
2021/01/16 06:53:49;;;;;;;5.53;3.60;;;0.60;1.00;;;;;;5075540;28;20267;-63
2021/01/16 06:56:24;;;;;;;9.02;3.78;;;0.80;99.90;;;;;;5076764;28;20243;-64
2021/01/16 06:58:53;;;;;;;6.75;3.95;;;0.90;99.90;;;;;;5075627;28;20180;-63
2021/01/16 07:01:31;;;;;;;4.32;3.42;;;1.00;99.90;;;;;;5077280;28;20188;-63
2021/01/16 07:04:03;;;;;;;5.13;3.72;;;1.00;99.90;;;;;;5076700;28;20188;-65
2021/01/16 07:06:45;;;;;;;6.15;3.67;;;1.00;99.90;;;;;;5076055;28;20188;-63
2021/01/16 07:09:19;;;;;;;3.53;2.70;;;1.10;99.90;;;;;;5076881;28;20181;-64
2021/01/16 07:11:51;;;;;;;5.55;3.72;;;1.20;99.90;;;;;;5076785;28;20169;-67
2021/01/16 07:14:17;;;;;;;10.18;3.00;;;1.40;99.90;;;;;;5076178;28;20522;-64
2021/01/16 07:16:45;;;;;;;6.25;3.50;;;1.20;99.90;;;;;;5076580;28;20179;-67
2021/01/16 07:19:11;;;;;;;7.50;3.28;;;1.20;99.90;;;;;;5075387;28;20191;-67
2021/01/16 07:21:41;;;;;;;8.00;4.35;;;1.00;99.90;;;;;;5076495;28;20257;-67
2021/01/16 07:24:11;;;;;;;4.60;3.35;;;0.70;99.90;;;;;;5075152;28;20296;-64
2021/01/16 07:26:39;;;;;;;14.48;9.82;;;0.50;1.00;;;;;;5075546;28;20663;-67
2021/01/16 07:29:07;;;;;;;5.20;3.95;;;0.60;1.00;;;;;;5076305;28;20449;-64
2021/01/16 07:31:38;;;;;;;5.28;3.58;;;0.40;1.00;;;;;;5076992;28;20173;-64
2021/01/16 07:34:07;;;;;;;5.28;3.42;;;0.20;1.00;;;;;;5075092;28;20180;-66
2021/01/16 07:36:37;;;;;;;5.35;4.65;;;0.10;1.00;;;;;;5075877;28;20552;-65
2021/01/16 07:39:08;;;;;;;4.75;3.78;;;0.20;1.00;;;;;;5076089;28;20675;-67
2021/01/16 07:41:35;;;;;;;4.97;3.80;;;0.30;1.00;;;;;;5075724;28;20574;-64
2021/01/16 07:44:09;;;;;;;5.68;4.05;;;0.20;1.00;;;;;;5076825;28;20511;-65
2021/01/16 07:46:37;;;;;;;6.20;4.03;;;0.10;1.00;;;;;;5076219;28;20259;-65
2021/01/16 07:49:05;;;;;;;5.68;3.75;;;0.20;1.00;;;;;;5075442;28;20177;-68
2021/01/16 07:51:36;;;;;;;7.70;4.80;;;0.00;1.00;;;;;;5075033;28;20625;-64
2021/01/16 07:54:05;;;;;;;5.15;4.00;;;-0.10;1.00;;;;;;5076043;28;20897;-64
2021/01/16 07:57:04;;;;;;;6.43;4.32;;;0.00;1.00;;;;;;5076124;28;20180;-65
2021/01/16 07:59:44;;;;;;;10.52;4.72;;;0.10;1.00;;;;;;5076420;28;20180;-67
2021/01/16 08:02:28;;;;;;;6.70;3.50;;;0.30;1.00;;;;;;5075791;28;20277;-64
2021/01/16 08:05:03;;;;;;;5.35;3.50;;;0.40;1.00;;;;;;5076176;28;20215;-64
2021/01/16 08:08:02;;;;;;;5.07;3.78;;;0.30;1.00;;;;;;5075475;28;20206;-67
2021/01/16 08:10:27;;;;;;;4.97;3.55;;;0.30;1.00;;;;;;5076585;28;20279;-67
2021/01/16 08:12:57;;;;;;;8.57;4.50;;;0.10;1.00;;;;;;5074503;28;20637;-64
2021/01/16 08:15:30;;;;;;;9.75;4.30;;;0.00;1.00;;;;;;5075610;28;20263;-67
2021/01/16 08:17:59;;;;;;;4.78;3.85;;;0.20;1.00;;;;;;5076766;28;20172;-64
2021/01/16 08:20:34;;;;;;;5.10;3.38;;;0.20;1.00;;;;;;5077720;28;20508;-67
2021/01/16 08:23:03;;;;;;;5.00;3.75;;;0.20;1.00;;;;;;5077739;28;20172;-64
2021/01/16 08:25:30;;;;;;;8.73;4.07;;;0.40;1.00;;;;;;5075050;28;20728;-67
2021/01/16 08:28:00;;;;;;;5.45;3.50;;;0.40;1.00;;;;;;5075777;28;20200;-67
2021/01/16 08:30:34;;;;;;;5.13;3.60;;;0.50;1.00;;;;;;5074040;28;20276;-67
2021/01/16 08:33:09;;;;;;;7.90;4.65;;;0.50;1.00;;;;;;5073128;28;20264;-67
2021/01/16 08:35:38;;;;;;;11.57;6.53;;;0.50;1.00;;;;;;5071351;28;20234;-62
2021/01/16 08:38:18;;;;;;;9.10;4.97;;;0.50;1.00;;;;;;5073798;28;20202;-60
2021/01/16 08:41:05;;;;;;;11.82;5.80;;;0.70;1.00;;;;;;5088359;28;20627;-61
2021/01/16 08:43:45;;;;;;;5.10;3.65;;;0.90;1.00;;;;;;5072792;28;20597;-61
2021/01/16 08:46:17;;;;;;;5.93;3.63;;;0.90;99.90;;;;;;5072486;28;20199;-61
2021/01/16 08:49:06;;;;;;;20.02;9.63;;;0.80;99.90;;;;;;5073305;28;20305;-63
2021/01/16 08:51:44;;;;;;;6.47;4.45;;;0.90;99.90;;;;;;5073756;28;20185;-61
2021/01/16 08:54:13;;;;;;;9.07;6.57;;;1.00;99.90;;;;;;5072294;28;20648;-61
2021/01/16 08:56:40;;;;;;;10.85;6.95;;;1.00;99.90;;;;;;5072340;28;20207;-59
2021/01/16 08:59:20;;;;;;;9.30;5.63;;;0.90;99.90;;;;;;5072382;28;20184;-63
2021/01/16 09:01:50;;;;;;;6.78;4.50;;;0.90;99.90;;;;;;5073252;28;20208;-63
2021/01/16 09:04:23;;;;;;;24.80;11.93;;;0.80;99.90;;;;;;5072797;28;20253;-63
2021/01/16 09:06:50;;;;;;;9.88;6.28;;;0.80;99.90;;;;;;5073284;28;20285;-61
2021/01/16 09:09:27;;;;;;;8.60;4.65;;;0.80;99.90;;;;;;5070524;28;20172;-62
2021/01/16 09:12:12;;;;;;;6.15;3.80;;;1.00;99.90;;;;;;5073069;28;20172;-61
2021/01/16 09:14:40;;;;;;;45.17;23.05;;;1.10;99.90;;;;;;5070241;28;20180;-61
2021/01/16 09:17:23;;;;;;;8.75;5.88;;;1.30;99.90;;;;;;5072852;28;20259;-60
2021/01/16 09:19:58;;;;;;;15.65;8.23;;;1.10;99.90;;;;;;5072382;28;20187;-62
2021/01/16 09:22:31;;;;;;;5.63;3.97;;;1.30;99.90;;;;;;5071616;28;20191;-61
2021/01/16 09:25:20;;;;;;;5.40;3.72;;;1.40;99.90;;;;;;5072915;28;20191;-60
2021/01/16 09:27:47;;;;;;;4.05;3.15;;;1.60;99.90;;;;;;5073025;28;20560;-62
2021/01/16 09:30:24;;;;;;;3.75;3.22;;;1.90;99.90;;;;;;5073257;28;20169;-62
2021/01/16 09:32:51;;;;;;;8.38;2.53;;;2.30;99.90;;;;;;5073612;28;20172;-62
2021/01/16 09:35:36;;;;;;;6.07;3.97;;;2.60;99.90;;;;;;5073104;28;20573;-65
2021/01/16 09:38:03;;;;;;;7.68;4.00;;;2.80;45.00;;;;;;5072292;28;20191;-65
2021/01/16 09:40:36;;;;;;;4.55;3.13;;;2.80;27.00;;;;;;5072743;28;20621;-62
2021/01/16 09:43:14;;;;;;;5.82;3.90;;;2.90;32.70;;;;;;5073241;28;20176;-61
2021/01/16 09:45:52;;;;;;;6.47;3.80;;;2.80;34.60;;;;;;5073509;28;20646;-61
2021/01/16 09:48:30;;;;;;;3.53;3.22;;;2.80;23.70;;;;;;5073250;28;20204;-62
2021/01/16 09:50:57;;;;;;;4.40;3.15;;;2.40;19.80;;;;;;5073114;28;20216;-65
2021/01/16 09:53:25;;;;;;;8.07;3.67;;;2.20;62.50;;;;;;5072636;28;20687;-64
2021/01/16 09:55:53;;;;;;;3.90;3.28;;;2.20;99.90;;;;;;5070800;28;20189;-62
2021/01/16 09:58:42;;;;;;;5.65;3.83;;;2.20;99.90;;;;;;5071399;28;20176;-62
2021/01/16 10:01:18;;;;;;;6.00;4.28;;;2.30;99.90;;;;;;5070148;28;20579;-63
2021/01/16 10:03:46;;;;;;;4.88;4.03;;;2.30;99.90;;;;;;5072814;28;20274;-66
2021/01/16 10:06:17;;;;;;;3.75;3.35;;;2.50;1.00;;;;;;5072959;28;20192;-64
2021/01/16 10:08:43;;;;;;;7.85;4.38;;;2.70;99.90;;;;;;5072824;28;20404;-66
2021/01/16 10:11:10;;;;;;;9.43;3.97;;;3.00;99.90;;;;;;5076230;28;20201;-62
2021/01/16 10:13:38;;;;;;;9.40;3.85;;;2.80;99.90;;;;;;5076350;28;20263;-62
2021/01/16 10:16:08;;;;;;;5.35;3.50;;;2.80;99.90;;;;;;5075804;28;20641;-61
2021/01/16 10:18:35;;;;;;;7.25;4.53;;;2.90;99.90;;;;;;5076764;28;20207;-61
2021/01/16 10:21:09;;;;;;;5.85;4.30;;;2.60;99.90;;;;;;5076839;28;20185;-62
2021/01/16 10:23:36;;;;;;;5.40;3.70;;;2.80;99.90;;;;;;5076817;28;20188;-62
2021/01/16 10:26:09;;;;;;;5.82;4.05;;;3.00;99.90;;;;;;5077262;28;20168;-62
2021/01/16 10:28:37;;;;;;;7.63;4.60;;;2.80;99.90;;;;;;5075356;28;20540;-61
2021/01/16 10:31:14;;;;;;;9.27;4.95;;;3.00;99.90;;;;;;5076426;28;20234;-61
2021/01/16 10:33:44;;;;;;;6.63;4.70;;;3.20;99.90;;;;;;5073376;28;20231;-60
2021/01/16 10:36:14;;;;;;;7.90;4.20;;;3.20;99.90;;;;;;5076116;28;20181;-60
2021/01/16 10:38:44;;;;;;;7.35;5.10;;;3.40;99.90;;;;;;5073415;28;20204;-61
2021/01/16 10:41:11;;;;;;;5.30;4.15;;;3.20;99.90;;;;;;5075710;28;20263;-61
2021/01/16 10:43:37;;;;;;;6.90;4.20;;;3.10;99.90;;;;;;5075826;28;20504;-61
2021/01/16 10:46:31;;;;;;;5.75;4.43;;;3.10;99.90;;;;;;5075861;28;20169;-60
2021/01/16 10:49:20;;;;;;;4.63;3.95;;;3.30;99.90;;;;;;5075571;28;20264;-60
2021/01/16 10:51:54;;;;;;;6.63;4.97;;;3.40;56.20;;;;;;5075609;28;20226;-60
2021/01/16 10:54:21;;;;;;;6.72;3.88;;;3.00;40.70;;;;;;5075648;28;20176;-60
2021/01/16 10:57:09;;;;;;;6.90;4.40;;;3.10;88.90;;;;;;5075520;28;20238;-60
2021/01/16 10:59:51;;;;;;;7.93;4.88;;;3.00;64.80;;;;;;5074703;28;20624;-59
2021/01/16 11:02:17;;;;;;;9.73;4.50;;;2.90;39.00;;;;;;5075122;28;20188;-61
2021/01/16 11:04:46;;;;;;;7.03;5.45;;;3.00;99.90;;;;;;5075716;28;20253;-61
2021/01/16 11:07:38;;;;;;;5.60;4.65;;;2.90;97.50;;;;;;5074432;28;20203;-65
2021/01/16 11:10:11;;;;;;;6.72;4.15;;;2.80;99.90;;;;;;5074884;28;20180;-61
2021/01/16 11:12:38;;;;;;;6.65;4.60;;;3.10;99.90;;;;;;5075462;28;20192;-60
2021/01/16 11:15:28;;;;;;;8.95;4.10;;;3.30;99.90;;;;;;5075253;28;20180;-62
2021/01/16 11:17:59;;;;;;;5.90;4.03;;;3.40;99.90;;;;;;5075056;28;20495;-59
2021/01/16 11:20:29;;;;;;;6.22;4.38;;;3.40;37.80;;;;;;5075319;28;20185;-61
2021/01/16 11:23:04;;;;;;;5.28;3.97;;;3.10;49.10;;;;;;5075545;28;20263;-61
2021/01/16 11:25:43;;;;;;;4.75;4.13;;;3.10;42.60;;;;;;5075585;28;20172;-61
2021/01/16 11:28:11;;;;;;;6.45;4.45;;;2.80;34.90;;;;;;5076404;28;20224;-62
2021/01/16 11:30:49;;;;;;;7.72;4.20;;;2.40;73.10;;;;;;5075655;28;20196;-61
2021/01/16 11:33:26;;;;;;;8.90;4.65;;;2.90;99.90;;;;;;5076544;28;20218;-62
2021/01/16 11:36:03;;;;;;;6.07;4.05;;;3.20;99.90;;;;;;5063068;28;20184;-62
2021/01/16 11:38:45;;;;;;;7.53;3.83;;;3.40;84.30;;;;;;5058669;28;20180;-62
2021/01/16 11:41:13;;;;;;;7.50;4.50;;;3.40;20.60;;;;;;5057720;28;20458;-61
2021/01/16 11:43:39;;;;;;;7.57;4.50;;;3.40;12.20;;;;;;5073457;28;20248;-61
2021/01/16 11:46:11;;;;;;;6.93;5.20;;;3.10;14.80;;;;;;5078541;28;20237;-62
2021/01/16 11:48:39;;;;;;;7.03;4.72;;;3.00;38.50;;;;;;5079348;28;20614;-64
2021/01/16 11:51:12;;;;;;;9.45;6.47;;;2.80;90.60;;;;;;5079692;28;20573;-64
2021/01/16 11:53:38;;;;;;;10.32;6.70;;;2.50;99.90;;;;;;5078155;28;20512;-63
2021/01/16 11:56:05;;;;;;;11.10;6.00;;;2.30;99.90;;;;;;5077868;28;20184;-61
2021/01/16 11:58:34;;;;;;;8.63;5.95;;;2.20;99.90;;;;;;5077344;28;20435;-60
2021/01/16 12:01:01;;;;;;;6.22;4.60;;;2.00;99.90;;;;;;5077120;28;20184;-60
2021/01/16 12:03:26;;;;;;;6.22;4.35;;;2.20;99.90;;;;;;5077658;28;20243;-60
2021/01/16 12:05:52;;;;;;;6.10;4.80;;;2.50;99.90;;;;;;5077146;28;20235;-59
2021/01/16 12:08:22;;;;;;;14.23;5.43;;;2.50;99.90;;;;;;5075949;28;20208;-58
2021/01/16 12:10:50;;;;;;;9.52;6.55;;;2.60;99.90;;;;;;5080344;28;20181;-60
2021/01/16 12:13:15;;;;;;;18.20;10.27;;;2.60;99.90;;;;;;5077854;28;20204;-61
2021/01/16 12:15:41;;;;;;;6.60;4.40;;;2.50;99.90;;;;;;5093787;28;20177;-63
2021/01/16 12:18:09;;;;;;;7.87;5.00;;;2.80;99.90;;;;;;5077310;28;20196;-64
2021/01/16 12:20:35;;;;;;;10.35;5.32;;;2.80;99.90;;;;;;5076203;28;20181;-65
2021/01/16 12:23:01;;;;;;;7.77;4.97;;;2.70;99.90;;;;;;5075280;28;20494;-65
2021/01/16 12:25:36;;;;;;;5.00;3.97;;;2.70;99.90;;;;;;5074901;28;20177;-60
2021/01/16 12:28:11;;;;;;;5.95;4.15;;;2.70;99.90;;;;;;5074829;28;20200;-61
2021/01/16 12:30:38;;;;;;;4.85;4.05;;;2.60;99.90;;;;;;5075393;28;20187;-64
2021/01/16 12:33:04;;;;;;;8.85;5.68;;;2.60;99.90;;;;;;5076919;28;20168;-61
2021/01/16 12:35:30;;;;;;;8.20;5.33;;;2.80;99.90;;;;;;5076281;28;20192;-60
2021/01/16 12:37:56;;;;;;;7.60;5.10;;;3.10;99.90;;;;;;5074183;28;20223;-63
2021/01/16 12:40:24;;;;;;;9.30;5.05;;;3.20;99.90;;;;;;5090240;28;20264;-62
2021/01/16 12:42:50;;;;;;;5.70;4.57;;;3.30;91.00;;;;;;5071443;28;20189;-63
2021/01/16 12:45:19;;;;;;;9.30;5.60;;;3.40;74.10;;;;;;5055130;28;20219;-64
2021/01/16 12:47:48;;;;;;;11.35;5.75;;;3.40;58.20;;;;;;5074246;28;20847;-62
2021/01/16 12:50:14;;;;;;;6.13;4.00;;;3.70;45.10;;;;;;5073919;28;20625;-61
2021/01/16 12:52:48;;;;;;;6.75;4.47;;;3.90;11.60;;;;;;5073967;28;20204;-65
2021/01/16 12:55:17;;;;;;;5.80;4.28;;;4.00;7.70;;;;;;5074091;28;20211;-64
2021/01/16 12:57:44;;;;;;;4.63;3.83;;;3.70;2.10;;;;;;5073012;28;20181;-65
2021/01/16 13:00:12;;;;;;;6.10;5.20;;;3.80;1.00;;;;;;5073739;28;20249;-67
2021/01/16 13:02:39;;;;;;;12.05;4.00;;;3.80;1.00;;;;;;5072330;28;20594;-65
2021/01/16 13:05:06;;;;;;;6.82;4.00;;;4.00;1.00;;;;;;5071040;28;20193;-65
2021/01/16 13:07:32;;;;;;;9.82;4.47;;;3.70;1.00;;;;;;5071346;28;20237;-63
2021/01/16 13:10:03;;;;;;;3.85;3.25;;;3.80;1.00;;;;;;5073616;28;20168;-61
2021/01/16 13:12:31;;;;;;;7.30;4.32;;;3.80;7.30;;;;;;5073200;28;20613;-61
2021/01/16 13:14:57;;;;;;;5.20;4.60;;;3.70;1.00;;;;;;5072935;28;20195;-61
2021/01/16 13:17:25;;;;;;;9.77;4.85;;;3.70;15.30;;;;;;5073279;28;20180;-62
2021/01/16 13:19:52;;;;;;;6.25;4.53;;;3.80;16.20;;;;;;5073687;28;20177;-62